Chrysanthemum — C6XO4 — position and weather

sailwx.info

Track history (hours):
 
Tides and Currents Weather Stations Pressure Air Temp Water Temp Dewpoint Dewpoint Depression Visibility Wind Speed Wind Dir Waves Ship Positions

Chrysanthemum

Last reported at 2014-Jul-27 02:13 UTC. Time now 2014-Jul-29 06:38 UTC.
Position N 01°12' E 103°41'.

Length 244 m; draft 13.7 m.

Type: Tanker. MMSI: 311015300.

Date/timePositionNaut miles runAvg speedWind from/ knotsBaromVisibWave heightAir tempDewpointWater temp
2014-Jul-27 02:13N 01°12' E 103°41'3 4.0
2014-Jul-27 01:32N 01°14' E 103°42'0 0.0
2014-Jul-25 15:33N 01°14' E 103°42'3 0.9
2014-Jul-25 12:15N 01°11' E 103°41'0 0.0
2014-Jul-25 10:27N 01°11' E 103°41'0 0.0
2014-Jul-25 09:33N 01°11' E 103°41'0 0.0
2014-Jul-25 08:33N 01°11' E 103°41'6 0.3
2014-Jul-24 14:26N 01°11' E 103°47'7 8.4
2014-Jul-24 13:34N 01°13' E 103°54'6 6.3
2014-Jul-24 12:34N 01°16' E 103°60'6 6.2
2014-Jul-24 11:33N 01°17' E 104°06'  
Track history (hours):
 
Tides and Currents Weather Stations Pressure Air Temp Water Temp Dewpoint Dewpoint Depression Visibility Wind Speed Wind Dir Waves Ship Positions

Chrysanthemum

Last reported at 2014-Jul-27 02:13 UTC. Time now 2014-Jul-29 06:38 UTC.
Position N 01°12' E 103°41'.

Length 244 m; draft 13.7 m.

Type: Tanker. MMSI: 311015300.

Date/timePositionNaut miles runAvg speedWind from/ knotsBaromVisibWave heightAir tempDewpointWater temp
2014-Jul-27 02:13N 01°12' E 103°41'3 4.0
2014-Jul-27 01:32N 01°14' E 103°42'0 0.0
2014-Jul-25 15:33N 01°14' E 103°42'3 0.9
2014-Jul-25 12:15N 01°11' E 103°41'0 0.0
2014-Jul-25 10:27N 01°11' E 103°41'0 0.0
2014-Jul-25 09:33N 01°11' E 103°41'0 0.0
2014-Jul-25 08:33N 01°11' E 103°41'6 0.3
2014-Jul-24 14:26N 01°11' E 103°47'7 8.4
2014-Jul-24 13:34N 01°13' E 103°54'6 6.3
2014-Jul-24 12:34N 01°16' E 103°60'6 6.2
2014-Jul-24 11:33N 01°17' E 104°06'  

Dump ship's entire track history